Terminal Aerodrome Forecast
Issued by NWS Bismarck, ND

Home | Current Version | Previous Version | Text Only | Print | Product List | Glossary On
Versions: 1 2 3 4 5 6 7 8 9 10 11 12 13 14 15 16 17 18
145
FTUS43 KBIS 100528
TAFISN
TAF
KISN 100528Z 1006/1106 VRB03KT P6SM BKN100
     FM101400 10006KT P6SM OVC030
     FM101600 11007KT P6SM -SN OVC015
     FM110200 08009KT 2SM -SN BR OVC010=

USA.gov is the U.S. government's official web portal to all federal, state and local government web resources and services.